createdAt,value
2017-04-15T00:00:23.950Z,0
2017-04-15T00:01:25.274Z,0
2017-04-15T00:02:26.457Z,0
2017-04-15T00:03:27.711Z,0
2017-04-15T00:04:28.946Z,0
2017-04-15T00:05:30.181Z,0
2017-04-15T00:06:31.449Z,0
2017-04-15T00:07:32.757Z,0
2017-04-15T00:08:33.979Z,0
2017-04-15T00:09:35.306Z,0
2017-04-15T00:10:36.545Z,0
2017-04-15T00:11:37.790Z,0
2017-04-15T00:12:39.054Z,0
2017-04-15T00:13:40.366Z,0
2017-04-15T00:14:41.637Z,0
2017-04-15T00:15:42.866Z,0
2017-04-15T00:16:44.251Z,0
2017-04-15T00:17:45.482Z,0
2017-04-15T00:18:46.733Z,0
2017-04-15T00:19:48.115Z,0
2017-04-15T00:20:49.360Z,0
2017-04-15T00:21:50.645Z,0
2017-04-15T00:22:51.886Z,0
2017-04-15T00:23:53.107Z,0
2017-04-15T00:24:54.338Z,0
2017-04-15T00:25:55.607Z,0
2017-04-15T00:26:56.944Z,0
2017-04-15T00:27:58.182Z,0
2017-04-15T00:28:59.415Z,0
2017-04-15T00:30:00.661Z,0
2017-04-15T00:31:01.916Z,0
2017-04-15T00:32:03.148Z,0
2017-04-15T00:33:04.476Z,0
2017-04-15T00:34:05.758Z,0
2017-04-15T00:35:06.970Z,0
2017-04-15T00:36:08.209Z,0
2017-04-15T00:37:09.555Z,0
2017-04-15T00:38:10.861Z,0
2017-04-15T00:39:12.345Z,0
2017-04-15T00:40:13.589Z,0
2017-04-15T00:41:14.840Z,0
2017-04-15T00:42:16.252Z,0
2017-04-15T00:43:17.492Z,0
2017-04-15T00:44:18.743Z,0
2017-04-15T00:45:20.102Z,0
2017-04-15T00:46:21.339Z,0
2017-04-15T00:47:22.570Z,0
2017-04-15T00:48:23.861Z,0
2017-04-15T00:49:25.217Z,0
2017-04-15T00:50:26.459Z,0
2017-04-15T00:51:27.696Z,0
2017-04-15T00:52:28.931Z,0
2017-04-15T00:53:30.175Z,0
2017-04-15T00:54:31.401Z,0
2017-04-15T00:55:32.819Z,0
2017-04-15T00:56:34.056Z,0
2017-04-15T00:57:35.291Z,0
2017-04-15T00:58:36.532Z,0
2017-04-15T00:59:37.767Z,0
2017-04-15T01:00:39.056Z,0
2017-04-15T01:01:40.310Z,0
2017-04-15T01:02:41.571Z,0
2017-04-15T01:03:42.804Z,0
2017-04-15T01:04:44.090Z,0
2017-04-15T01:05:45.322Z,0
2017-04-15T01:06:46.563Z,0
2017-04-15T01:07:47.914Z,0
2017-04-15T01:08:49.148Z,0
2017-04-15T01:09:50.389Z,0
2017-04-15T01:10:51.655Z,0
2017-04-15T01:11:52.878Z,0
2017-04-15T01:12:54.137Z,0
2017-04-15T01:13:55.377Z,0
2017-04-15T01:14:56.641Z,0
2017-04-15T01:15:57.904Z,0
2017-04-15T01:16:59.142Z,0
2017-04-15T01:18:00.433Z,0
2017-04-15T01:19:01.674Z,0
2017-04-15T01:20:02.921Z,0
2017-04-15T01:21:04.170Z,0
2017-04-15T01:22:05.424Z,0
2017-04-15T01:23:06.758Z,0
2017-04-15T01:24:08.024Z,0
2017-04-15T01:25:09.258Z,0
2017-04-15T01:26:10.497Z,0
2017-04-15T01:27:11.763Z,0
2017-04-15T01:28:13.010Z,0
2017-04-15T01:29:14.263Z,0
2017-04-15T01:30:15.484Z,0
2017-04-15T01:31:16.744Z,0
2017-04-15T01:32:17.991Z,0
2017-04-15T01:33:19.232Z,0
2017-04-15T01:34:20.469Z,0
2017-04-15T01:35:21.784Z,0
2017-04-15T01:36:23.044Z,0
2017-04-15T01:37:24.318Z,0
2017-04-15T01:38:25.578Z,0
2017-04-15T01:39:26.853Z,0
2017-04-15T01:40:28.109Z,0
2017-04-15T01:41:29.429Z,0
2017-04-15T01:42:30.650Z,0
2017-04-15T01:43:31.920Z,0
2017-04-15T01:44:33.160Z,0
2017-04-15T01:45:34.397Z,0
2017-04-15T01:46:35.631Z,0
2017-04-15T01:47:36.867Z,0
2017-04-15T01:48:38.125Z,0
2017-04-15T01:49:39.365Z,0
2017-04-15T01:50:40.598Z,0
2017-04-15T01:51:41.858Z,0
2017-04-15T01:52:43.089Z,0
2017-04-15T01:53:44.409Z,0
2017-04-15T01:54:45.595Z,0
2017-04-15T01:55:46.846Z,0
2017-04-15T01:56:48.112Z,0
2017-04-15T01:57:49.348Z,0
2017-04-15T01:58:50.680Z,0
2017-04-15T01:59:51.992Z,0
2017-04-15T02:00:53.249Z,0
2017-04-15T02:01:54.557Z,0
2017-04-15T02:02:55.799Z,0
2017-04-15T02:03:57.037Z,0
2017-04-15T02:04:58.274Z,0
2017-04-15T02:05:59.511Z,0
2017-04-15T02:07:00.797Z,0
2017-04-15T02:08:02.003Z,0
2017-04-15T02:09:03.380Z,0
2017-04-15T02:10:04.645Z,0
2017-04-15T02:11:05.876Z,0
2017-04-15T02:12:07.138Z,0
2017-04-15T02:13:08.441Z,0
2017-04-15T02:14:09.666Z,0
2017-04-15T02:15:10.904Z,0
2017-04-15T02:16:12.240Z,0
2017-04-15T02:17:13.473Z,0
2017-04-15T02:18:14.719Z,0
2017-04-15T02:19:15.970Z,0
2017-04-15T02:20:17.245Z,0
2017-04-15T02:21:18.487Z,0
2017-04-15T02:22:19.742Z,0
2017-04-15T02:23:20.993Z,0
2017-04-15T02:24:22.251Z,0
2017-04-15T02:25:23.497Z,0
2017-04-15T02:26:24.758Z,0
2017-04-15T02:27:25.995Z,0
2017-04-15T02:28:27.234Z,0
2017-04-15T02:29:28.471Z,0
2017-04-15T02:30:29.702Z,0
2017-04-15T02:31:30.983Z,0
2017-04-15T02:32:32.270Z,0
2017-04-15T02:33:33.491Z,0
2017-04-15T02:34:34.730Z,0
2017-04-15T02:35:35.981Z,0
2017-04-15T02:36:37.218Z,0
2017-04-15T02:37:38.458Z,0
2017-04-15T02:38:39.790Z,0
2017-04-15T02:39:41.045Z,0
2017-04-15T02:40:42.281Z,0
2017-04-15T02:41:43.513Z,0
2017-04-15T02:42:44.752Z,0
2017-04-15T02:43:46.009Z,0
2017-04-15T02:44:47.240Z,0
2017-04-15T02:45:48.552Z,0
2017-04-15T02:46:49.859Z,0
2017-04-15T02:47:51.126Z,0
2017-04-15T02:48:52.337Z,0
2017-04-15T02:49:53.576Z,0
2017-04-15T02:50:54.813Z,0
2017-04-15T02:51:56.049Z,0
2017-04-15T02:52:57.286Z,0
2017-04-15T02:53:58.534Z,0
2017-04-15T02:54:59.772Z,0
2017-04-15T02:56:01.012Z,0
2017-04-15T02:57:02.281Z,0
2017-04-15T02:58:03.613Z,0
2017-04-15T02:59:04.859Z,0
2017-04-15T03:00:06.188Z,0
2017-04-15T03:01:07.429Z,0
2017-04-15T03:02:08.706Z,0
2017-04-15T03:03:09.923Z,0
2017-04-15T03:04:11.293Z,0
2017-04-15T03:05:12.542Z,0
2017-04-15T03:06:13.894Z,0
2017-04-15T03:07:15.125Z,0
2017-04-15T03:08:16.426Z,0
2017-04-15T03:09:17.876Z,0
2017-04-15T03:10:19.110Z,0
2017-04-15T03:11:20.344Z,0
2017-04-15T03:12:21.600Z,0
2017-04-15T03:13:22.821Z,0
2017-04-15T03:14:24.073Z,0
2017-04-15T03:15:25.325Z,0
2017-04-15T03:16:26.591Z,0
2017-04-15T03:17:27.835Z,0
2017-04-15T03:18:29.074Z,0
2017-04-15T03:19:30.395Z,0
2017-04-15T03:20:31.819Z,0
2017-04-15T03:21:33.050Z,0
2017-04-15T03:22:34.370Z,0
2017-04-15T03:23:35.590Z,0
2017-04-15T03:24:36.825Z,0
2017-04-15T03:25:38.047Z,0
2017-04-15T03:26:39.327Z,0
2017-04-15T03:27:40.647Z,0
2017-04-15T03:28:41.898Z,0
2017-04-15T03:29:43.193Z,0
2017-04-15T03:30:44.444Z,0
2017-04-15T03:31:45.672Z,0
2017-04-15T03:32:46.913Z,0
2017-04-15T03:33:48.266Z,0
2017-04-15T03:34:49.585Z,0
2017-04-15T03:35:50.976Z,0
2017-04-15T03:36:52.227Z,0
2017-04-15T03:37:53.444Z,0
2017-04-15T03:38:54.683Z,0
2017-04-15T03:39:56.006Z,0
2017-04-15T03:40:57.301Z,0
2017-04-15T03:41:58.506Z,0
2017-04-15T03:42:59.719Z,0
2017-04-15T03:44:00.952Z,0
2017-04-15T03:45:02.203Z,0
2017-04-15T03:46:03.468Z,0
2017-04-15T03:47:04.755Z,0
2017-04-15T03:48:05.988Z,0
2017-04-15T03:49:07.239Z,0
2017-04-15T03:50:08.490Z,0
2017-04-15T03:51:09.725Z,0
2017-04-15T03:52:11.048Z,0
2017-04-15T03:53:12.292Z,0
2017-04-15T03:54:13.888Z,0
2017-04-15T03:55:15.113Z,0
2017-04-15T03:56:16.358Z,0
2017-04-15T03:57:17.590Z,0
2017-04-15T03:58:18.934Z,0
2017-04-15T03:59:20.227Z,0
2017-04-15T04:00:21.448Z,0
2017-04-15T04:01:22.681Z,0
2017-04-15T04:02:23.921Z,0
2017-04-15T04:03:25.337Z,0
2017-04-15T04:04:26.635Z,0
2017-04-15T04:05:27.862Z,0
2017-04-15T04:06:29.108Z,0
2017-04-15T04:07:30.355Z,0
2017-04-15T04:08:31.594Z,0
2017-04-15T04:09:32.824Z,4
2017-04-15T04:10:34.076Z,4
2017-04-15T04:11:35.322Z,4
2017-04-15T04:12:36.601Z,4
2017-04-15T04:13:37.839Z,4
2017-04-15T04:14:39.079Z,4
2017-04-15T04:15:40.324Z,4
2017-04-15T04:16:41.582Z,4
2017-04-15T04:17:42.818Z,8
2017-04-15T04:18:44.095Z,8
2017-04-15T04:19:45.330Z,8
2017-04-15T04:20:46.567Z,12
2017-04-15T04:21:47.804Z,12
2017-04-15T04:22:49.041Z,12
2017-04-15T04:23:50.430Z,12
2017-04-15T04:24:51.669Z,8
2017-04-15T04:25:52.898Z,12
2017-04-15T04:26:54.197Z,16
2017-04-15T04:27:55.449Z,20
2017-04-15T04:28:56.697Z,24
2017-04-15T04:29:57.943Z,28
2017-04-15T04:30:59.181Z,32
2017-04-15T04:32:00.424Z,36
2017-04-15T04:33:01.658Z,44
2017-04-15T04:34:02.901Z,44
2017-04-15T04:35:04.288Z,48
2017-04-15T04:36:05.433Z,60
2017-04-15T04:37:06.868Z,60
2017-04-15T04:38:08.197Z,72
2017-04-15T04:39:09.426Z,64
2017-04-15T04:40:10.661Z,64
2017-04-15T04:41:11.894Z,80
2017-04-15T04:42:13.163Z,96
2017-04-15T04:43:14.423Z,104
2017-04-15T04:44:15.642Z,120
2017-04-15T04:45:16.862Z,116
2017-04-15T04:46:18.113Z,132
2017-04-15T04:47:19.344Z,148
2017-04-15T04:48:20.591Z,188
2017-04-15T04:49:21.846Z,208
2017-04-15T04:50:23.169Z,224
2017-04-15T04:51:24.406Z,192
2017-04-15T04:52:25.649Z,216
2017-04-15T04:53:26.902Z,264
2017-04-15T04:54:28.165Z,256
2017-04-15T04:55:29.406Z,280
2017-04-15T04:56:30.678Z,296
2017-04-15T04:57:31.990Z,276
2017-04-15T04:58:33.234Z,280
2017-04-15T04:59:34.480Z,356
2017-04-15T05:00:35.741Z,440
2017-04-15T05:01:36.995Z,404
2017-04-15T05:02:38.539Z,412
2017-04-15T05:03:39.802Z,324
2017-04-15T05:04:41.027Z,376
2017-04-15T05:05:42.286Z,380
2017-04-15T05:06:43.537Z,392
2017-04-15T05:07:44.761Z,396
2017-04-15T05:08:46.003Z,420
2017-04-15T05:09:47.238Z,504
2017-04-15T05:10:48.482Z,576
2017-04-15T05:11:49.719Z,596
2017-04-15T05:12:50.960Z,548
2017-04-15T05:13:52.188Z,504
2017-04-15T05:14:53.437Z,652
2017-04-15T05:15:54.675Z,772
2017-04-15T05:16:56.028Z,772
2017-04-15T05:17:57.262Z,756
2017-04-15T05:18:58.494Z,728
2017-04-15T05:19:59.742Z,824
2017-04-15T05:21:01.004Z,800
2017-04-15T05:22:02.265Z,724
2017-04-15T05:23:03.500Z,712
2017-04-15T05:24:04.741Z,772
2017-04-15T05:25:05.971Z,624
2017-04-15T05:26:07.207Z,744
2017-04-15T05:27:08.640Z,728
2017-04-15T05:28:09.831Z,868
2017-04-15T05:29:11.086Z,924
2017-04-15T05:30:12.312Z,936
2017-04-15T05:31:13.546Z,1000
2017-04-15T05:32:14.796Z,920
2017-04-15T05:33:16.134Z,776
2017-04-15T05:34:17.325Z,712
2017-04-15T05:35:18.608Z,860
2017-04-15T05:36:19.834Z,1148
2017-04-15T05:37:21.103Z,1100
2017-04-15T05:38:22.353Z,940
2017-04-15T05:39:23.629Z,904
2017-04-15T05:40:24.848Z,948
2017-04-15T05:41:26.089Z,740
2017-04-15T05:42:27.377Z,808
2017-04-15T05:43:28.618Z,1000
2017-04-15T05:44:29.857Z,1356
2017-04-15T05:45:31.135Z,1420
2017-04-15T05:46:32.554Z,1324
2017-04-15T05:47:33.871Z,1284
2017-04-15T05:48:35.122Z,1048
2017-04-15T05:49:36.355Z,952
2017-04-15T05:50:37.576Z,888
2017-04-15T05:51:38.836Z,792
2017-04-15T05:52:40.171Z,892
2017-04-15T05:53:41.433Z,1192
2017-04-15T05:54:42.703Z,1556
2017-04-15T05:55:43.963Z,1420
2017-04-15T05:56:45.184Z,1316
2017-04-15T05:57:46.701Z,1100
2017-04-15T05:58:48.013Z,940
2017-04-15T05:59:49.259Z,872
2017-04-15T06:00:50.517Z,1060
2017-04-15T06:01:51.772Z,1420
2017-04-15T06:02:53.122Z,1400
2017-04-15T06:03:54.399Z,1292
2017-04-15T06:04:55.637Z,1100
2017-04-15T06:05:56.887Z,1056
2017-04-15T06:06:58.124Z,1084
2017-04-15T06:07:59.390Z,1172
2017-04-15T06:09:00.695Z,1504
2017-04-15T06:10:01.975Z,1980
2017-04-15T06:11:03.258Z,1456
2017-04-15T06:12:04.485Z,1332
2017-04-15T06:13:05.730Z,1244
2017-04-15T06:14:06.984Z,1432
2017-04-15T06:15:08.214Z,1888
2017-04-15T06:16:09.461Z,1820
2017-04-15T06:17:10.706Z,2072
2017-04-15T06:18:12.035Z,2248
2017-04-15T06:19:13.268Z,1984
2017-04-15T06:20:14.512Z,1652
2017-04-15T06:21:15.750Z,1480
2017-04-15T06:22:17.089Z,1488
2017-04-15T06:23:18.360Z,1680
2017-04-15T06:24:19.691Z,1804
2017-04-15T06:25:20.937Z,2444
2017-04-15T06:26:22.174Z,2268
2017-04-15T06:27:23.465Z,2028
2017-04-15T06:28:24.825Z,1684
2017-04-15T06:29:26.146Z,1444
2017-04-15T06:30:27.383Z,1740
2017-04-15T06:31:28.635Z,1432
2017-04-15T06:32:29.910Z,1376
2017-04-15T06:33:31.176Z,1212
2017-04-15T06:34:32.821Z,1456
2017-04-15T06:35:34.139Z,2236
2017-04-15T06:36:35.372Z,2560
2017-04-15T06:37:36.642Z,2148
2017-04-15T06:38:37.878Z,1468
2017-04-15T06:39:39.215Z,1452
2017-04-15T06:40:40.467Z,1428
2017-04-15T06:41:41.710Z,1316
2017-04-15T06:42:42.988Z,1564
2017-04-15T06:43:44.267Z,1256
2017-04-15T06:44:45.495Z,1452
2017-04-15T06:45:46.741Z,1980
2017-04-15T06:46:48.074Z,1992
2017-04-15T06:47:49.299Z,2580
2017-04-15T06:48:50.542Z,2772
2017-04-15T06:49:51.779Z,2392
2017-04-15T06:50:53.036Z,2184
2017-04-15T06:51:54.285Z,2456
2017-04-15T06:52:55.570Z,2440
2017-04-15T06:53:56.789Z,2732
2017-04-15T06:54:58.006Z,2576
2017-04-15T06:55:59.244Z,3300
2017-04-15T06:57:00.498Z,2956
2017-04-15T06:58:01.740Z,2816
2017-04-15T06:59:03.220Z,3016
2017-04-15T07:00:04.469Z,3056
2017-04-15T07:01:05.693Z,3324
2017-04-15T07:02:06.930Z,2956
2017-04-15T07:03:08.192Z,3648
2017-04-15T07:04:09.437Z,3764
2017-04-15T07:05:10.681Z,3300
2017-04-15T07:06:12.034Z,2752
2017-04-15T07:07:13.273Z,2612
2017-04-15T07:08:14.512Z,3596
2017-04-15T07:09:15.756Z,3864
2017-04-15T07:10:17.000Z,2792
2017-04-15T07:11:18.251Z,2336
2017-04-15T07:12:19.582Z,2244
2017-04-15T07:13:20.814Z,2544
2017-04-15T07:14:22.064Z,1980
2017-04-15T07:15:23.302Z,1924
2017-04-15T07:16:24.524Z,2008
2017-04-15T07:17:25.788Z,1656
2017-04-15T07:18:27.018Z,1860
2017-04-15T07:19:28.347Z,2036
2017-04-15T07:20:29.609Z,1900
2017-04-15T07:21:30.846Z,1952
2017-04-15T07:22:32.164Z,1836
2017-04-15T07:23:33.397Z,1732
2017-04-15T07:24:34.653Z,1708
2017-04-15T07:25:35.892Z,1532
2017-04-15T07:26:37.126Z,1284
2017-04-15T07:27:38.377Z,1128
2017-04-15T07:28:39.624Z,1120
2017-04-15T07:29:40.976Z,1168
2017-04-15T07:30:42.291Z,1036
2017-04-15T07:31:43.532Z,880
2017-04-15T07:32:44.787Z,956
2017-04-15T07:33:46.021Z,1308
2017-04-15T07:34:47.377Z,1736
2017-04-15T07:35:48.613Z,2252
2017-04-15T07:36:49.874Z,2168
2017-04-15T07:37:51.139Z,2100
2017-04-15T07:38:52.485Z,3324
2017-04-15T07:39:53.721Z,4592
2017-04-15T07:40:55.107Z,5264
2017-04-15T07:41:56.382Z,4916
2017-04-15T07:42:57.669Z,4272
2017-04-15T07:43:58.999Z,3808
2017-04-15T07:45:00.393Z,3856
2017-04-15T07:46:01.632Z,3832
2017-04-15T07:47:02.891Z,3212
2017-04-15T07:48:04.167Z,2764
2017-04-15T07:49:05.397Z,1800
2017-04-15T07:50:06.676Z,1272
2017-04-15T07:51:07.949Z,1484
2017-04-15T07:52:09.183Z,2220
2017-04-15T07:53:10.419Z,4252
2017-04-15T07:54:11.636Z,6272
2017-04-15T07:55:12.976Z,5876
2017-04-15T07:56:14.228Z,7532
2017-04-15T07:57:15.473Z,10096
2017-04-15T07:58:16.742Z,12192
2017-04-15T07:59:17.981Z,12012
2017-04-15T08:00:19.241Z,11884
2017-04-15T08:01:20.553Z,13296
2017-04-15T08:02:21.798Z,14828
2017-04-15T08:03:23.041Z,9712
2017-04-15T08:04:24.313Z,12028
2017-04-15T08:05:25.554Z,13884
2017-04-15T08:06:26.776Z,15080
2017-04-15T08:07:28.048Z,12420
2017-04-15T08:08:29.282Z,10344
2017-04-15T08:09:30.525Z,6696
2017-04-15T08:10:31.790Z,6860
2017-04-15T08:11:33.026Z,8264
2017-04-15T08:12:34.286Z,6016
2017-04-15T08:13:35.536Z,5196
2017-04-15T08:14:36.907Z,4520
2017-04-15T08:15:38.157Z,4820
2017-04-15T08:16:39.397Z,6260
2017-04-15T08:17:40.639Z,5804
2017-04-15T08:18:41.873Z,4568
2017-04-15T08:19:43.162Z,4592
2017-04-15T08:20:44.392Z,5484
2017-04-15T08:21:45.644Z,7764
2017-04-15T08:22:46.873Z,9800
2017-04-15T08:23:48.111Z,10388
2017-04-15T08:24:49.373Z,8236
2017-04-15T08:25:50.787Z,7780
2017-04-15T08:26:52.047Z,7444
2017-04-15T08:27:53.327Z,7124
2017-04-15T08:28:54.521Z,6356
2017-04-15T08:29:55.836Z,5816
2017-04-15T08:30:57.096Z,7184
2017-04-15T08:31:58.335Z,7348
2017-04-15T08:32:59.574Z,7420
2017-04-15T08:34:00.846Z,7548
2017-04-15T08:35:02.085Z,6844
2017-04-15T08:36:03.335Z,7576
2017-04-15T08:37:04.567Z,8224
2017-04-15T08:38:05.792Z,9092
2017-04-15T08:39:07.064Z,11044
2017-04-15T08:40:08.400Z,12144
2017-04-15T08:41:09.657Z,14084
2017-04-15T08:42:10.942Z,17920
2017-04-15T08:43:12.176Z,18624
2017-04-15T08:44:13.448Z,19712
2017-04-15T08:45:14.681Z,19040
2017-04-15T08:46:15.932Z,14836
2017-04-15T08:47:17.186Z,16896
2017-04-15T08:48:18.412Z,17088
2017-04-15T08:49:19.657Z,17792
2017-04-15T08:50:20.932Z,16960
2017-04-15T08:51:22.184Z,16156
2017-04-15T08:52:23.419Z,17408
2017-04-15T08:53:24.766Z,20192
2017-04-15T08:54:26.041Z,20576
2017-04-15T08:55:27.303Z,20768
2017-04-15T08:56:28.576Z,19552
2017-04-15T08:57:29.862Z,20032
2017-04-15T08:58:31.105Z,18720
2017-04-15T08:59:32.403Z,14528
2017-04-15T09:00:33.803Z,15320
2017-04-15T09:01:35.053Z,14672
2017-04-15T09:02:36.397Z,13764
2017-04-15T09:03:37.557Z,15396
2017-04-15T09:04:38.823Z,15132
2017-04-15T09:05:40.066Z,15840
2017-04-15T09:06:41.341Z,15448
2017-04-15T09:07:42.574Z,15192
2017-04-15T09:08:43.931Z,13908
2017-04-15T09:09:45.176Z,12424
2017-04-15T09:10:46.422Z,10848
2017-04-15T09:11:47.786Z,9596
2017-04-15T09:12:49.035Z,8520
2017-04-15T09:13:50.271Z,7840
2017-04-15T09:14:51.503Z,6976
2017-04-15T09:15:52.797Z,6508
2017-04-15T09:16:54.065Z,7100
2017-04-15T09:17:55.319Z,7940
2017-04-15T09:18:56.555Z,6908
2017-04-15T09:19:57.805Z,6672
2017-04-15T09:20:59.090Z,7092
2017-04-15T09:22:00.355Z,6412
2017-04-15T09:23:01.615Z,7024
2017-04-15T09:24:02.938Z,7612
2017-04-15T09:25:04.195Z,11056
2017-04-15T09:26:05.450Z,9808
2017-04-15T09:27:06.712Z,10820
2017-04-15T09:28:07.954Z,11980
2017-04-15T09:29:09.268Z,11564
2017-04-15T09:30:10.515Z,9600
2017-04-15T09:31:11.860Z,7672
2017-04-15T09:32:13.112Z,6812
2017-04-15T09:33:14.372Z,6876
2017-04-15T09:34:15.609Z,6380
2017-04-15T09:35:16.881Z,6100
2017-04-15T09:36:18.187Z,6996
2017-04-15T09:37:19.424Z,7400
2017-04-15T09:38:20.673Z,6260
2017-04-15T09:39:21.912Z,7056
2017-04-15T09:40:23.157Z,6472
2017-04-15T09:41:24.424Z,5716
2017-04-15T09:42:25.655Z,6912
2017-04-15T09:43:26.924Z,7004
2017-04-15T09:44:28.253Z,5524
2017-04-15T09:45:29.494Z,5112
2017-04-15T09:46:30.747Z,3692
2017-04-15T09:47:32.012Z,3156
2017-04-15T09:48:33.277Z,4724
2017-04-15T09:49:34.568Z,2884
2017-04-15T09:50:35.825Z,2340
2017-04-15T09:51:37.148Z,1904
2017-04-15T09:52:38.426Z,1948
2017-04-15T09:53:39.674Z,1792
2017-04-15T09:54:40.925Z,1576
2017-04-15T09:55:42.192Z,2388
2017-04-15T09:56:43.419Z,4292
2017-04-15T09:57:44.669Z,2964
2017-04-15T09:58:45.915Z,2384
2017-04-15T09:59:47.382Z,2972
2017-04-15T10:00:48.683Z,2552
2017-04-15T10:01:49.928Z,3644
2017-04-15T10:02:51.169Z,3732
2017-04-15T10:03:52.414Z,4244
2017-04-15T10:04:53.647Z,5664
2017-04-15T10:05:54.975Z,4376
2017-04-15T10:06:56.244Z,5268
2017-04-15T10:07:57.471Z,6348
2017-04-15T10:08:58.844Z,5432
2017-04-15T10:10:00.081Z,5676
2017-04-15T10:11:01.344Z,6848
2017-04-15T10:12:02.579Z,5540
2017-04-15T10:13:03.897Z,5004
2017-04-15T10:14:05.170Z,5124
2017-04-15T10:15:06.408Z,4680
2017-04-15T10:16:07.647Z,4408
2017-04-15T10:17:08.902Z,4600
2017-04-15T10:18:10.241Z,5640
2017-04-15T10:19:11.485Z,5956
2017-04-15T10:20:12.826Z,7396
2017-04-15T10:21:14.072Z,8396
2017-04-15T10:22:15.319Z,7736
2017-04-15T10:23:16.566Z,8872
2017-04-15T10:24:17.800Z,9760
2017-04-15T10:25:19.098Z,10472
2017-04-15T10:26:20.373Z,9468
2017-04-15T10:27:21.606Z,8156
2017-04-15T10:28:22.845Z,7744
2017-04-15T10:29:24.085Z,7216
2017-04-15T10:30:25.449Z,6564
2017-04-15T10:31:26.698Z,6732
2017-04-15T10:32:27.954Z,7732
2017-04-15T10:33:29.225Z,6416
2017-04-15T10:34:30.548Z,6036
2017-04-15T10:35:31.891Z,7212
2017-04-15T10:36:33.139Z,8400
2017-04-15T10:37:34.402Z,9396
2017-04-15T10:38:35.629Z,9620
2017-04-15T10:39:36.931Z,10608
2017-04-15T10:40:38.168Z,11960
2017-04-15T10:41:39.415Z,11024
2017-04-15T10:42:40.759Z,12120
2017-04-15T10:43:42.029Z,11956
2017-04-15T10:44:43.290Z,12712
2017-04-15T10:45:44.523Z,15564
2017-04-15T10:46:45.880Z,18080
2017-04-15T10:47:47.106Z,20832
2017-04-15T10:48:48.426Z,20512
2017-04-15T10:49:49.693Z,20032
2017-04-15T10:50:50.928Z,20288
2017-04-15T10:51:52.212Z,19040
2017-04-15T10:52:53.456Z,17280
2017-04-15T10:53:54.725Z,16548
2017-04-15T10:54:55.954Z,13592
2017-04-15T10:55:57.233Z,14008
2017-04-15T10:56:58.507Z,15372
2017-04-15T10:57:59.733Z,17088
2017-04-15T10:59:01.015Z,17728
2017-04-15T11:00:02.231Z,17600
2017-04-15T11:01:03.452Z,15596
2017-04-15T11:02:04.801Z,15832
2017-04-15T11:03:06.063Z,19040
2017-04-15T11:04:07.315Z,16132
2017-04-15T11:05:08.659Z,15220
2017-04-15T11:06:09.879Z,10856
2017-04-15T11:07:11.134Z,13064
2017-04-15T11:08:12.384Z,8388
2017-04-15T11:09:13.629Z,7232
2017-04-15T11:10:15.000Z,12452
2017-04-15T11:11:16.274Z,12864
2017-04-15T11:12:17.551Z,13312
2017-04-15T11:13:18.827Z,14792
2017-04-15T11:14:20.061Z,11636
2017-04-15T11:15:21.325Z,11968
2017-04-15T11:16:22.558Z,11312
2017-04-15T11:17:23.812Z,10216
2017-04-15T11:18:25.081Z,11816
2017-04-15T11:19:26.331Z,9868
2017-04-15T11:20:27.608Z,7940
2017-04-15T11:21:28.877Z,7224
2017-04-15T11:22:30.104Z,7072
2017-04-15T11:23:31.366Z,6220
2017-04-15T11:24:32.593Z,5736
2017-04-15T11:25:33.832Z,7736
2017-04-15T11:26:35.068Z,10332
2017-04-15T11:27:36.309Z,9692
2017-04-15T11:28:37.557Z,10388
2017-04-15T11:29:38.795Z,8880
2017-04-15T11:30:40.044Z,8560
2017-04-15T11:31:41.309Z,7628
2017-04-15T11:32:42.612Z,6256
2017-04-15T11:33:43.860Z,6480
2017-04-15T11:34:45.117Z,6896
2017-04-15T11:35:46.348Z,7536
2017-04-15T11:36:47.596Z,7296
2017-04-15T11:37:48.840Z,7516
2017-04-15T11:38:50.088Z,7516
2017-04-15T11:39:51.494Z,10048
2017-04-15T11:40:52.846Z,12220
2017-04-15T11:41:54.093Z,12344
2017-04-15T11:42:55.368Z,12296
2017-04-15T11:43:56.603Z,13424
2017-04-15T11:44:57.846Z,14956
2017-04-15T11:45:59.121Z,16460
2017-04-15T11:47:00.458Z,17312
2017-04-15T11:48:01.773Z,17472
2017-04-15T11:49:03.033Z,16896
2017-04-15T11:50:04.330Z,15048
2017-04-15T11:51:05.697Z,13216
2017-04-15T11:52:07.110Z,12696
2017-04-15T11:53:08.369Z,12304
2017-04-15T11:54:09.607Z,12360
2017-04-15T11:55:10.875Z,12372
2017-04-15T11:56:12.135Z,12376
2017-04-15T11:57:13.547Z,12748
2017-04-15T11:58:14.859Z,14104
2017-04-15T11:59:16.088Z,14596
2017-04-15T12:00:17.346Z,17120
2017-04-15T12:01:18.570Z,18208
2017-04-15T12:02:19.802Z,15928
2017-04-15T12:03:21.149Z,13148
2017-04-15T12:04:22.394Z,9548
2017-04-15T12:05:23.641Z,6520
2017-04-15T12:06:24.908Z,5864
2017-04-15T12:07:26.145Z,4028
2017-04-15T12:08:27.452Z,3240
2017-04-15T12:09:28.757Z,2980
2017-04-15T12:10:30.011Z,2988
2017-04-15T12:11:31.368Z,2900
2017-04-15T12:12:32.643Z,2724
2017-04-15T12:13:33.892Z,2732
2017-04-15T12:14:35.128Z,2932
2017-04-15T12:15:36.371Z,5736
2017-04-15T12:16:37.624Z,9068
2017-04-15T12:17:38.928Z,10720
2017-04-15T12:18:40.164Z,13452
2017-04-15T12:19:41.435Z,15152
2017-04-15T12:20:42.713Z,16020
2017-04-15T12:21:43.962Z,16144
2017-04-15T12:22:45.360Z,16480
2017-04-15T12:23:46.618Z,16864
2017-04-15T12:24:47.850Z,16800
2017-04-15T12:25:49.115Z,16520
2017-04-15T12:26:50.482Z,16340
2017-04-15T12:27:51.732Z,16476
2017-04-15T12:28:53.045Z,16408
2017-04-15T12:29:54.386Z,16304
2017-04-15T12:30:55.628Z,16164
2017-04-15T12:31:56.881Z,16188
2017-04-15T12:32:58.118Z,16608
2017-04-15T12:33:59.393Z,16184
2017-04-15T12:35:00.641Z,15860
2017-04-15T12:36:01.899Z,15584
2017-04-15T12:37:03.144Z,15588
2017-04-15T12:38:04.380Z,15812
2017-04-15T12:39:05.665Z,16160
2017-04-15T12:40:06.957Z,16480
2017-04-15T12:41:08.215Z,16544
2017-04-15T12:42:09.559Z,16240
2017-04-15T12:43:10.792Z,15732
2017-04-15T12:44:12.042Z,14400
2017-04-15T12:45:13.297Z,13828
2017-04-15T12:46:14.577Z,12068
2017-04-15T12:47:15.808Z,10712
2017-04-15T12:48:17.077Z,10372
2017-04-15T12:49:18.305Z,10916
2017-04-15T12:50:19.605Z,11016
2017-04-15T12:51:20.909Z,10996
2017-04-15T12:52:22.255Z,10484
2017-04-15T12:53:23.473Z,11632
2017-04-15T12:54:24.835Z,12564
2017-04-15T12:55:26.083Z,12468
2017-04-15T12:56:27.509Z,12356
2017-04-15T12:57:28.832Z,12592
2017-04-15T12:58:30.108Z,13116
2017-04-15T12:59:31.351Z,13496
2017-04-15T13:00:32.743Z,13596
2017-04-15T13:01:33.977Z,13376
2017-04-15T13:02:35.262Z,13824
2017-04-15T13:03:36.521Z,14180
2017-04-15T13:04:37.768Z,14664
2017-04-15T13:05:39.096Z,14916
2017-04-15T13:06:40.336Z,14236
2017-04-15T13:07:41.593Z,12576
2017-04-15T13:08:42.919Z,12100
2017-04-15T13:09:44.200Z,11284
2017-04-15T13:10:45.420Z,9852
2017-04-15T13:11:46.819Z,9916
2017-04-15T13:12:48.048Z,10424
2017-04-15T13:13:49.297Z,9484
2017-04-15T13:14:50.616Z,8584
2017-04-15T13:15:51.855Z,8808
2017-04-15T13:16:53.094Z,9320
2017-04-15T13:17:54.342Z,10840
2017-04-15T13:18:55.592Z,12804
2017-04-15T13:19:56.850Z,14184
2017-04-15T13:20:58.089Z,14812
2017-04-15T13:21:59.372Z,14788
2017-04-15T13:23:00.632Z,13416
2017-04-15T13:24:01.868Z,11616
2017-04-15T13:25:03.110Z,10964
2017-04-15T13:26:04.365Z,10128
2017-04-15T13:27:05.600Z,8988
2017-04-15T13:28:06.933Z,7120
2017-04-15T13:29:08.231Z,5560
2017-04-15T13:30:09.503Z,4708
2017-04-15T13:31:10.749Z,3836
2017-04-15T13:32:12.091Z,3564
2017-04-15T13:33:13.343Z,3636
2017-04-15T13:34:14.613Z,3744
2017-04-15T13:35:15.848Z,4576
2017-04-15T13:36:17.114Z,4764
2017-04-15T13:37:18.363Z,5828
2017-04-15T13:38:19.586Z,7336
2017-04-15T13:39:20.845Z,8648
2017-04-15T13:40:22.056Z,10744
2017-04-15T13:41:23.373Z,12176
2017-04-15T13:42:24.622Z,13112
2017-04-15T13:43:25.861Z,14012
2017-04-15T13:44:27.117Z,14372
2017-04-15T13:45:28.349Z,14104
2017-04-15T13:46:29.660Z,13888
2017-04-15T13:47:31.008Z,13624
2017-04-15T13:48:32.275Z,13380
2017-04-15T13:49:33.517Z,13500
2017-04-15T13:50:34.774Z,13580
2017-04-15T13:51:36.035Z,13252
2017-04-15T13:52:37.294Z,12976
2017-04-15T13:53:38.611Z,12864
2017-04-15T13:54:39.869Z,12692
2017-04-15T13:55:41.108Z,12580
2017-04-15T13:56:42.402Z,12540
2017-04-15T13:57:43.769Z,12548
2017-04-15T13:58:45.026Z,12664